Time;durP1;ratioP1;P1;durP2;ratioP2;P2;SDS_P1;SDS_P2;PMS_P1;PMS_P2;Temp;Humidity;BMP_temperature;BMP_pressure;BME280_temperature;BME280_humidity;BME280_pressure;Samples;Min_cycle;Max_cycle;Signal;HPM_P1;HPM_P2
2023/01/01 00:01:18;;;;;;;5.00;2.60;;;;;;;;;;4974037;28;20752;-86
2023/01/01 00:03:48;;;;;;;8.07;2.70;;;;;;;;;;4973586;28;20419;-83
2023/01/01 00:06:14;;;;;;;7.20;2.10;;;;;;;;;;4974594;28;20478;-84
2023/01/01 00:08:40;;;;;;;4.53;1.53;;;;;;;;;;4974061;28;20453;-86
2023/01/01 00:11:07;;;;;;;8.17;2.13;;;;;;;;;;4973988;28;20628;-87
2023/01/01 00:13:33;;;;;;;7.00;2.10;;;;;;;;;;4973912;28;20415;-85
2023/01/01 00:16:10;;;;;;;4.23;1.47;;;;;;;;;;4956624;28;20430;-84
2023/01/01 00:18:40;;;;;;;5.23;1.23;;;;;;;;;;4956143;28;20487;-82
2023/01/01 00:21:07;;;;;;;6.70;2.00;;;;;;;;;;4956468;28;20930;-84
2023/01/01 00:23:33;;;;;;;3.53;1.13;;;;;;;;;;4973844;28;20409;-85
2023/01/01 00:25:59;;;;;;;6.37;1.60;;;;;;;;;;4973780;28;20536;-84
2023/01/01 00:28:26;;;;;;;4.63;1.23;;;;;;;;;;4977566;28;20890;-86
2023/01/01 00:30:52;;;;;;;4.40;1.17;;;;;;;;;;4960232;28;20440;-83
2023/01/01 00:33:18;;;;;;;7.37;1.40;;;;;;;;;;4977129;28;20406;-85
2023/01/01 00:35:44;;;;;;;6.03;1.83;;;;;;;;;;4959974;28;20433;-85
2023/01/01 00:38:13;;;;;;;6.37;1.50;;;;;;;;;;4960024;28;20432;-84
2023/01/01 00:40:59;;;;;;;5.00;1.50;;;;;;;;;;4960017;28;20416;-86
2023/01/01 00:43:46;;;;;;;6.00;1.03;;;;;;;;;;4959681;28;20922;-83
2023/01/01 00:46:15;;;;;;;6.40;1.57;;;;;;;;;;4977629;28;20564;-91
2023/01/01 00:49:10;;;;;;;6.70;1.93;;;;;;;;;;4959990;28;20422;-87
2023/01/01 00:51:57;;;;;;;6.17;1.40;;;;;;;;;;4977622;28;20429;-85
2023/01/01 00:54:42;;;;;;;4.37;1.90;;;;;;;;;;4977371;28;20863;-84
2023/01/01 00:57:08;;;;;;;4.70;1.10;;;;;;;;;;4977023;28;20447;-85
2023/01/01 00:59:34;;;;;;;6.83;1.27;;;;;;;;;;4959535;28;20415;-85
2023/01/01 01:02:00;;;;;;;6.93;2.10;;;;;;;;;;4959771;28;20431;-85
2023/01/01 01:04:26;;;;;;;7.37;1.60;;;;;;;;;;4959084;28;20414;-84
2023/01/01 01:06:52;;;;;;;8.33;1.77;;;;;;;;;;4959136;28;20444;-85
2023/01/01 01:09:20;;;;;;;2.97;1.87;;;;;;;;;;4943904;29;20479;-85
2023/01/01 01:11:49;;;;;;;8.30;1.13;;;;;;;;;;4940175;29;20780;-85
2023/01/01 01:14:35;;;;;;;4.33;1.40;;;;;;;;;;4957324;29;20427;-84
2023/01/01 01:17:21;;;;;;;7.47;1.27;;;;;;;;;;4940040;29;20833;-85
2023/01/01 01:19:47;;;;;;;2.77;1.30;;;;;;;;;;4939897;29;20416;-86
2023/01/01 01:22:13;;;;;;;8.40;1.90;;;;;;;;;;4939963;29;20446;-85
2023/01/01 01:24:39;;;;;;;6.37;1.63;;;;;;;;;;4939888;29;20838;-85
2023/01/01 01:27:04;;;;;;;8.63;2.10;;;;;;;;;;4939809;29;20426;-85
2023/01/01 01:29:30;;;;;;;6.10;1.43;;;;;;;;;;4939886;29;20187;-85
2023/01/01 01:31:56;;;;;;;4.97;0.83;;;;;;;;;;4957050;29;20474;-86
2023/01/01 01:34:22;;;;;;;5.17;1.70;;;;;;;;;;4942905;29;20233;-83
2023/01/01 01:36:48;;;;;;;11.90;1.70;;;;;;;;;;4939836;29;20577;-84
2023/01/01 01:39:15;;;;;;;7.77;1.40;;;;;;;;;;4956308;28;20469;-85
2023/01/01 01:41:41;;;;;;;5.27;1.43;;;;;;;;;;4939657;29;20422;-85
2023/01/01 01:44:27;;;;;;;5.97;0.80;;;;;;;;;;4939624;29;20830;-82
2023/01/01 01:46:53;;;;;;;5.80;1.90;;;;;;;;;;4939482;29;20458;-85
2023/01/01 01:49:26;;;;;;;6.97;1.50;;;;;;;;;;4939174;29;20421;-85
2023/01/01 01:51:53;;;;;;;4.43;1.83;;;;;;;;;;4939576;29;20430;-83
2023/01/01 01:54:25;;;;;;;5.40;1.97;;;;;;;;;;4956661;29;20411;-85
2023/01/01 01:57:08;;;;;;;4.47;1.13;;;;;;;;;;4939487;29;20452;-84
2023/01/01 01:59:38;;;;;;;3.40;1.30;;;;;;;;;;4940393;29;20445;-83
2023/01/01 02:02:07;;;;;;;4.83;1.40;;;;;;;;;;4955991;29;20406;-85
2023/01/01 02:04:35;;;;;;;6.53;1.40;;;;;;;;;;4956386;29;20422;-86
2023/01/01 02:07:04;;;;;;;5.07;1.60;;;;;;;;;;4956458;29;20436;-86
2023/01/01 02:09:30;;;;;;;4.50;1.60;;;;;;;;;;4939029;29;20558;-85
2023/01/01 02:11:57;;;;;;;9.33;0.97;;;;;;;;;;4939114;29;20426;-86
2023/01/01 02:14:23;;;;;;;3.47;1.67;;;;;;;;;;4939103;29;20423;-87
2023/01/01 02:16:50;;;;;;;5.20;1.80;;;;;;;;;;4939047;29;20531;-86
2023/01/01 02:19:35;;;;;;;5.37;1.80;;;;;;;;;;4938627;29;20663;-87
2023/01/01 02:22:24;;;;;;;3.47;1.37;;;;;;;;;;4939017;29;20415;-87
2023/01/01 02:25:00;;;;;;;4.97;2.27;;;;;;;;;;4956077;29;20467;-85
2023/01/01 02:27:45;;;;;;;6.47;1.73;;;;;;;;;;4956039;29;20522;-86
2023/01/01 02:30:11;;;;;;;6.80;1.40;;;;;;;;;;4938799;29;20457;-85
2023/01/01 02:32:40;;;;;;;26.27;16.13;;;;;;;;;;4938416;29;20429;-86
2023/01/01 02:38:00;;;;;;;5.63;2.03;;;;;;;;;;4956273;29;20438;-85
2023/01/01 02:40:27;;;;;;;8.57;2.23;;;;;;;;;;4938425;29;20508;-85
2023/01/01 02:42:53;;;;;;;9.77;1.67;;;;;;;;;;4941614;29;20436;-86
2023/01/01 02:45:19;;;;;;;6.73;1.30;;;;;;;;;;4938154;29;20528;-83
2023/01/01 02:47:45;;;;;;;5.30;1.40;;;;;;;;;;4937597;29;20789;-86
2023/01/01 02:50:13;;;;;;;7.73;1.70;;;;;;;;;;4954417;28;20427;-84
2023/01/01 02:52:45;;;;;;;7.97;1.23;;;;;;;;;;4937899;29;20956;-86
2023/01/01 02:55:23;;;;;;;6.50;1.63;;;;;;;;;;4955466;29;20418;-86
2023/01/01 03:00:17;;;;;;;4.30;1.83;;;;;;;;;;4955359;29;20469;-87
2023/01/01 03:00:47;;;;;;;4.07;1.10;;;;;;;;;;4955252;29;20407;-86
2023/01/01 03:03:27;;;;;;;3.87;1.70;;;;;;;;;;4955583;29;20501;-84
2023/01/01 03:08:54;;;;;;;8.20;2.20;;;;;;;;;;4966007;28;20553;-86
2023/01/01 03:11:22;;;;;;;4.30;0.83;;;;;;;;;;4957085;28;20524;-86
2023/01/01 03:13:56;;;;;;;7.53;2.43;;;;;;;;;;4973992;28;20413;-87
2023/01/01 03:16:32;;;;;;;7.03;1.83;;;;;;;;;;4957049;28;20915;-86
2023/01/01 03:19:11;;;;;;;4.20;1.03;;;;;;;;;;4953528;29;20422;-83
2023/01/01 03:21:40;;;;;;;7.17;2.77;;;;;;;;;;4954930;29;20438;-86
2023/01/01 03:24:06;;;;;;;4.30;2.10;;;;;;;;;;4953634;29;20507;-82
2023/01/01 03:26:34;;;;;;;5.20;2.13;;;;;;;;;;4954936;29;20943;-83
2023/01/01 03:29:02;;;;;;;9.47;2.83;;;;;;;;;;4954914;29;20417;-84
2023/01/01 03:31:28;;;;;;;5.03;2.40;;;;;;;;;;4954842;29;20925;-86
2023/01/01 03:33:58;;;;;;;5.03;2.00;;;;;;;;;;4954323;29;20516;-85
2023/01/01 03:36:26;;;;;;;6.73;2.60;;;;;;;;;;4954845;29;20262;-86
2023/01/01 03:38:56;;;;;;;8.10;2.30;;;;;;;;;;4954617;29;20561;-84
2023/01/01 03:41:25;;;;;;;7.53;3.23;;;;;;;;;;4954703;29;20422;-85
2023/01/01 03:44:03;;;;;;;8.07;2.10;;;;;;;;;;4973397;28;20439;-84
2023/01/01 03:46:31;;;;;;;7.33;2.20;;;;;;;;;;4956265;28;20479;-84
2023/01/01 03:48:59;;;;;;;8.27;2.53;;;;;;;;;;4956287;28;20515;-86
2023/01/01 03:51:43;;;;;;;6.90;2.53;;;;;;;;;;4973859;28;20927;-86
2023/01/01 03:54:35;;;;;;;4.13;1.63;;;;;;;;;;4954850;29;20500;-88
2023/01/01 03:57:05;;;;;;;11.97;3.07;;;;;;;;;;4931637;29;20515;-86
2023/01/01 03:59:34;;;;;;;5.47;1.93;;;;;;;;;;4952575;29;20578;-87
2023/01/01 04:02:01;;;;;;;3.67;1.53;;;;;;;;;;4954970;28;20790;-87
2023/01/01 04:04:28;;;;;;;4.70;2.37;;;;;;;;;;4958735;29;20837;-86
2023/01/01 04:06:54;;;;;;;4.73;1.43;;;;;;;;;;4957358;29;20624;-86
2023/01/01 04:09:22;;;;;;;5.57;1.80;;;;;;;;;;4941628;29;20475;-86
2023/01/01 04:12:02;;;;;;;8.60;2.40;;;;;;;;;;4938161;29;20777;-87
2023/01/01 04:14:28;;;;;;;8.47;2.20;;;;;;;;;;4939478;29;20937;-87
2023/01/01 04:16:57;;;;;;;5.50;2.60;;;;;;;;;;4937811;29;20490;-86
2023/01/01 04:19:23;;;;;;;3.87;1.90;;;;;;;;;;4939365;29;20431;-86
2023/01/01 04:21:52;;;;;;;8.33;2.27;;;;;;;;;;4939191;29;20442;-85
2023/01/01 04:24:19;;;;;;;6.33;2.80;;;;;;;;;;4938027;29;20421;-86
2023/01/01 04:26:46;;;;;;;4.57;2.03;;;;;;;;;;4939186;29;20953;-86
2023/01/01 04:29:12;;;;;;;4.60;2.30;;;;;;;;;;4941330;29;20759;-83
2023/01/01 04:31:38;;;;;;;5.10;1.90;;;;;;;;;;4938882;29;20419;-83
2023/01/01 04:34:04;;;;;;;5.97;2.23;;;;;;;;;;4937778;29;20190;-86
2023/01/01 04:36:30;;;;;;;7.60;2.43;;;;;;;;;;4937802;29;20548;-87
2023/01/01 04:38:55;;;;;;;5.40;1.90;;;;;;;;;;4937770;29;20496;-86
2023/01/01 04:41:21;;;;;;;6.63;2.00;;;;;;;;;;4937664;29;20414;-86
2023/01/01 04:43:51;;;;;;;5.83;1.50;;;;;;;;;;4937641;29;20423;-87
2023/01/01 04:46:18;;;;;;;7.53;2.23;;;;;;;;;;4938802;29;20483;-86
2023/01/01 04:48:44;;;;;;;6.10;2.47;;;;;;;;;;4937402;29;20423;-88
2023/01/01 04:51:11;;;;;;;8.20;2.27;;;;;;;;;;4941733;28;20425;-84
2023/01/01 04:53:37;;;;;;;5.50;2.00;;;;;;;;;;4940699;29;21022;-88
2023/01/01 04:56:07;;;;;;;4.00;1.63;;;;;;;;;;4940715;29;20899;-85
2023/01/01 04:58:34;;;;;;;7.00;2.33;;;;;;;;;;4940430;29;20501;-84
2023/01/01 05:01:00;;;;;;;4.80;1.97;;;;;;;;;;4940529;29;20431;-86
2023/01/01 05:03:26;;;;;;;4.37;2.23;;;;;;;;;;4940103;29;20507;-86
2023/01/01 05:06:02;;;;;;;4.60;1.73;;;;;;;;;;4940249;29;20478;-87
2023/01/01 05:08:31;;;;;;;6.27;1.90;;;;;;;;;;4940043;29;20471;-86
2023/01/01 05:11:05;;;;;;;10.93;2.47;;;;;;;;;;4940151;29;20441;-85
2023/01/01 05:13:35;;;;;;;3.53;1.70;;;;;;;;;;4939065;29;20754;-86
2023/01/01 05:16:05;;;;;;;4.53;1.73;;;;;;;;;;4940109;29;20437;-86
2023/01/01 05:18:31;;;;;;;8.13;2.60;;;;;;;;;;4939843;29;20510;-85
2023/01/01 05:21:00;;;;;;;3.10;1.47;;;;;;;;;;4940073;29;20517;-85
2023/01/01 05:23:28;;;;;;;3.80;2.23;;;;;;;;;;4939873;29;20451;-83
2023/01/01 05:25:57;;;;;;;5.50;1.90;;;;;;;;;;4939675;29;20478;-84
2023/01/01 05:28:24;;;;;;;5.00;1.60;;;;;;;;;;4957136;29;20447;-86
2023/01/01 05:30:50;;;;;;;4.90;1.80;;;;;;;;;;4939883;29;20419;-87
2023/01/01 05:33:16;;;;;;;3.53;1.40;;;;;;;;;;4956782;29;20420;-87
2023/01/01 05:35:45;;;;;;;5.83;1.67;;;;;;;;;;4939838;29;20419;-87
2023/01/01 05:38:11;;;;;;;2.80;0.70;;;;;;;;;;4939826;29;20632;-86
2023/01/01 05:40:40;;;;;;;3.67;1.53;;;;;;;;;;4939738;29;20422;-86
2023/01/01 05:43:06;;;;;;;5.70;1.63;;;;;;;;;;4939691;29;20493;-87
2023/01/01 05:45:33;;;;;;;6.20;1.07;;;;;;;;;;4939558;29;20462;-87
2023/01/01 05:48:01;;;;;;;3.10;0.70;;;;;;;;;;4939819;29;20532;-86
2023/01/01 05:50:30;;;;;;;4.53;1.70;;;;;;;;;;4939541;29;20518;-86
2023/01/01 05:52:56;;;;;;;6.77;0.70;;;;;;;;;;4956786;29;20768;-86
2023/01/01 05:55:24;;;;;;;5.33;1.03;;;;;;;;;;4939546;29;20422;-87
2023/01/01 05:57:50;;;;;;;4.40;1.17;;;;;;;;;;4940407;29;20446;-85
2023/01/01 06:00:17;;;;;;;3.63;1.00;;;;;;;;;;4939430;29;20788;-86
2023/01/01 06:02:42;;;;;;;4.13;0.93;;;;;;;;;;4938996;29;20718;-84
2023/01/01 06:05:09;;;;;;;2.47;0.90;;;;;;;;;;4956345;29;20494;-85
2023/01/01 06:07:35;;;;;;;5.07;1.17;;;;;;;;;;4958200;28;20269;-85
2023/01/01 06:10:01;;;;;;;4.47;0.60;;;;;;;;;;4958451;28;21005;-86
2023/01/01 06:12:28;;;;;;;3.70;0.80;;;;;;;;;;4958289;28;20274;-88
2023/01/01 06:15:14;;;;;;;3.77;0.83;;;;;;;;;;4958279;28;20414;-85
2023/01/01 06:17:40;;;;;;;2.87;1.23;;;;;;;;;;4957857;28;20425;-84
2023/01/01 06:20:06;;;;;;;4.43;1.07;;;;;;;;;;4958293;28;20409;-87
2023/01/01 06:22:32;;;;;;;5.90;0.97;;;;;;;;;;4958371;28;20249;-83
2023/01/01 06:24:58;;;;;;;5.70;0.80;;;;;;;;;;4957847;28;20473;-86
2023/01/01 06:27:23;;;;;;;6.30;2.50;;;;;;;;;;4958128;28;20496;-85
2023/01/01 06:29:53;;;;;;;1.80;0.80;;;;;;;;;;4958031;28;20225;-85
2023/01/01 06:32:23;;;;;;;4.20;1.10;;;;;;;;;;4975114;28;20498;-84
2023/01/01 06:34:49;;;;;;;4.20;2.00;;;;;;;;;;4957997;28;20420;-83
2023/01/01 06:37:15;;;;;;;1.90;0.53;;;;;;;;;;4957798;28;20898;-86
2023/01/01 06:39:41;;;;;;;3.67;1.17;;;;;;;;;;4957980;28;20433;-85
2023/01/01 06:42:07;;;;;;;7.37;1.67;;;;;;;;;;4957712;28;20415;-86
2023/01/01 06:44:33;;;;;;;3.67;1.10;;;;;;;;;;4957795;28;20433;-86
2023/01/01 06:46:59;;;;;;;4.10;0.77;;;;;;;;;;4957457;28;20517;-86
2023/01/01 06:49:25;;;;;;;3.00;0.60;;;;;;;;;;4957800;28;20430;-85
2023/01/01 06:51:51;;;;;;;1.00;0.30;;;;;;;;;;4957713;28;20433;-86
2023/01/01 06:54:17;;;;;;;3.50;0.73;;;;;;;;;;4957691;28;20414;-86
2023/01/01 06:56:43;;;;;;;4.33;0.57;;;;;;;;;;4974932;28;20493;-85
2023/01/01 06:59:09;;;;;;;3.23;0.93;;;;;;;;;;4957667;28;20834;-86
2023/01/01 07:01:36;;;;;;;3.00;0.50;;;;;;;;;;4957222;28;20485;-86
2023/01/01 07:04:04;;;;;;;3.60;1.00;;;;;;;;;;4957579;28;20413;-85
2023/01/01 07:06:31;;;;;;;3.37;0.80;;;;;;;;;;4957168;28;20485;-85
2023/01/01 07:08:57;;;;;;;5.20;0.93;;;;;;;;;;4944700;29;20478;-87
2023/01/01 07:11:43;;;;;;;3.00;0.63;;;;;;;;;;4938202;29;20449;-85
2023/01/01 07:14:12;;;;;;;1.60;0.43;;;;;;;;;;4938129;29;20410;-86
2023/01/01 07:16:38;;;;;;;3.87;0.57;;;;;;;;;;4937678;29;20430;-85
2023/01/01 07:19:04;;;;;;;3.63;0.43;;;;;;;;;;4938017;29;20415;-85
2023/01/01 07:21:42;;;;;;;2.70;0.40;;;;;;;;;;4938144;29;20848;-86
2023/01/01 07:24:09;;;;;;;4.53;0.80;;;;;;;;;;4939731;29;20856;-84
2023/01/01 07:26:35;;;;;;;4.00;0.87;;;;;;;;;;4955801;29;20513;-85
2023/01/01 07:29:01;;;;;;;1.70;0.50;;;;;;;;;;4937904;29;20457;-85
2023/01/01 07:31:27;;;;;;;1.30;0.20;;;;;;;;;;4954861;29;20428;-86
2023/01/01 07:33:53;;;;;;;8.47;1.37;;;;;;;;;;4937974;29;20452;-86
2023/01/01 07:36:21;;;;;;;0.90;0.20;;;;;;;;;;4954530;28;20521;-84
2023/01/01 07:38:47;;;;;;;2.67;0.50;;;;;;;;;;4937994;29;20759;-87
2023/01/01 07:41:13;;;;;;;2.00;0.50;;;;;;;;;;4955112;29;20430;-86
2023/01/01 07:43:39;;;;;;;2.17;0.30;;;;;;;;;;4937929;29;20410;-86
2023/01/01 07:46:05;;;;;;;6.13;0.47;;;;;;;;;;4954639;29;20214;-84
2023/01/01 07:48:31;;;;;;;5.13;1.07;;;;;;;;;;4937930;29;20418;-86
2023/01/01 07:50:57;;;;;;;1.73;0.40;;;;;;;;;;4937810;29;20420;-86
2023/01/01 07:53:23;;;;;;;3.07;1.13;;;;;;;;;;4955049;29;20511;-85
2023/01/01 07:55:49;;;;;;;2.57;0.50;;;;;;;;;;4955056;29;20637;-86
2023/01/01 07:58:15;;;;;;;3.10;0.30;;;;;;;;;;4937636;29;20192;-85
2023/01/01 08:00:41;;;;;;;9.13;0.67;;;;;;;;;;4937578;29;20419;-85
2023/01/01 08:03:07;;;;;;;1.20;0.30;;;;;;;;;;4936984;29;20430;-82
2023/01/01 08:05:34;;;;;;;1.77;0.30;;;;;;;;;;4954698;29;20544;-87
2023/01/01 08:08:00;;;;;;;3.23;0.50;;;;;;;;;;4959583;28;20457;-85
2023/01/01 08:10:26;;;;;;;1.73;0.37;;;;;;;;;;4956762;28;20418;-84
2023/01/01 08:12:58;;;;;;;2.87;0.40;;;;;;;;;;4956655;28;20182;-86
2023/01/01 08:15:24;;;;;;;6.57;1.70;;;;;;;;;;4973859;28;20456;-86
2023/01/01 08:17:49;;;;;;;1.70;0.20;;;;;;;;;;4956360;28;20419;-88
2023/01/01 08:20:15;;;;;;;4.70;0.33;;;;;;;;;;4956760;28;20185;-86
2023/01/01 08:22:41;;;;;;;2.40;0.37;;;;;;;;;;4956582;28;20424;-84
2023/01/01 08:25:08;;;;;;;2.47;0.40;;;;;;;;;;4956390;28;20472;-85
2023/01/01 08:27:34;;;;;;;2.10;0.30;;;;;;;;;;4973776;28;20425;-89
2023/01/01 08:30:00;;;;;;;0.90;0.30;;;;;;;;;;4956781;28;20416;-87
2023/01/01 08:32:26;;;;;;;2.53;0.43;;;;;;;;;;4973427;28;20417;-88
2023/01/01 08:34:52;;;;;;;2.30;0.33;;;;;;;;;;4973736;28;20224;-86
2023/01/01 08:37:18;;;;;;;1.80;0.40;;;;;;;;;;4973696;28;20426;-86
2023/01/01 08:39:48;;;;;;;1.70;0.20;;;;;;;;;;4956304;28;20978;-86
2023/01/01 08:42:14;;;;;;;2.10;0.23;;;;;;;;;;4956529;28;20937;-86
2023/01/01 08:44:40;;;;;;;4.73;0.47;;;;;;;;;;4973598;28;20415;-87
2023/01/01 08:47:17;;;;;;;1.83;0.70;;;;;;;;;;4973429;28;20686;-87
2023/01/01 08:49:43;;;;;;;2.27;0.63;;;;;;;;;;4960171;28;20424;-88
2023/01/01 08:52:09;;;;;;;4.10;0.50;;;;;;;;;;4963857;28;20449;-88
2023/01/01 08:54:35;;;;;;;1.03;0.30;;;;;;;;;;4982286;28;20456;-90
2023/01/01 08:57:01;;;;;;;1.80;0.30;;;;;;;;;;4980159;28;20410;-88
2023/01/01 08:59:27;;;;;;;1.70;0.30;;;;;;;;;;4961821;28;20826;-87
2023/01/01 09:01:53;;;;;;;4.43;0.20;;;;;;;;;;4979671;28;20422;-85
2023/01/01 09:04:19;;;;;;;1.90;0.40;;;;;;;;;;4978932;28;20537;-85
2023/01/01 09:06:45;;;;;;;1.43;0.23;;;;;;;;;;4979218;28;20486;-86
2023/01/01 09:09:11;;;;;;;1.20;0.40;;;;;;;;;;4977166;28;20904;-85
2023/01/01 09:11:37;;;;;;;1.77;0.20;;;;;;;;;;4960005;28;21032;-86
2023/01/01 09:14:03;;;;;;;4.57;0.80;;;;;;;;;;4977172;28;20233;-86
2023/01/01 09:16:32;;;;;;;3.03;0.37;;;;;;;;;;4976766;28;20735;-86
2023/01/01 09:18:57;;;;;;;1.23;0.40;;;;;;;;;;4976949;28;20415;-87
2023/01/01 09:21:23;;;;;;;2.40;0.63;;;;;;;;;;4976755;28;20436;-88
2023/01/01 09:23:49;;;;;;;2.60;0.30;;;;;;;;;;4976741;28;20419;-87
2023/01/01 09:26:15;;;;;;;6.03;0.40;;;;;;;;;;4977088;28;20502;-87
2023/01/01 09:28:41;;;;;;;1.57;0.30;;;;;;;;;;4976936;28;20409;-87
2023/01/01 09:31:07;;;;;;;2.00;0.30;;;;;;;;;;4976433;28;20418;-86
2023/01/01 09:33:33;;;;;;;4.57;0.77;;;;;;;;;;4977894;28;20508;-88
2023/01/01 09:36:16;;;;;;;2.03;0.40;;;;;;;;;;4976728;28;20502;-85
2023/01/01 09:38:42;;;;;;;2.03;0.40;;;;;;;;;;4959355;28;20436;-85
2023/01/01 09:41:17;;;;;;;1.60;0.20;;;;;;;;;;4959440;28;20413;-83
2023/01/01 09:43:59;;;;;;;1.93;0.20;;;;;;;;;;4959193;28;20470;-84
2023/01/01 09:46:25;;;;;;;1.53;0.30;;;;;;;;;;4990942;28;20482;-86
2023/01/01 09:48:54;;;;;;;1.43;0.50;;;;;;;;;;4995491;28;20441;-84
2023/01/01 09:51:21;;;;;;;2.10;0.47;;;;;;;;;;4978287;28;20428;-85
2023/01/01 09:54:06;;;;;;;3.47;0.47;;;;;;;;;;4978325;28;20472;-87
2023/01/01 09:56:35;;;;;;;3.87;0.47;;;;;;;;;;4995731;28;20421;-88
2023/01/01 09:59:11;;;;;;;0.77;0.20;;;;;;;;;;4977833;28;20417;-89
2023/01/01 10:01:59;;;;;;;1.73;0.47;;;;;;;;;;4995514;28;20411;-84
2023/01/01 10:04:37;;;;;;;4.47;0.50;;;;;;;;;;4977539;28;20563;-85
2023/01/01 10:07:25;;;;;;;1.50;0.30;;;;;;;;;;4995600;28;20538;-84
2023/01/01 10:09:59;;;;;;;1.97;0.50;;;;;;;;;;4995229;28;20428;-88
2023/01/01 10:12:37;;;;;;;2.17;0.20;;;;;;;;;;4995491;28;20411;-86
2023/01/01 10:15:13;;;;;;;0.70;0.23;;;;;;;;;;4977882;28;20412;-85
2023/01/01 10:17:54;;;;;;;2.67;0.50;;;;;;;;;;4994964;28;20421;-88
2023/01/01 10:20:26;;;;;;;2.80;0.20;;;;;;;;;;4986220;28;20425;-88
2023/01/01 10:22:53;;;;;;;1.53;0.30;;;;;;;;;;4996778;28;20552;-89
2023/01/01 10:25:21;;;;;;;3.93;0.50;;;;;;;;;;4977630;28;20483;-86
2023/01/01 10:27:50;;;;;;;1.03;0.30;;;;;;;;;;4977619;28;20515;-88
2023/01/01 10:30:17;;;;;;;1.80;0.50;;;;;;;;;;4977216;28;20470;-89
2023/01/01 10:32:46;;;;;;;1.70;0.50;;;;;;;;;;4976970;28;20434;-88
2023/01/01 10:35:17;;;;;;;1.60;0.57;;;;;;;;;;4994777;28;20455;-88
2023/01/01 10:37:43;;;;;;;0.90;0.20;;;;;;;;;;4977623;28;20414;-89
2023/01/01 10:40:29;;;;;;;1.67;0.40;;;;;;;;;;4994846;28;20416;-88
2023/01/01 10:42:56;;;;;;;3.80;0.30;;;;;;;;;;4993127;28;20767;-87
2023/01/01 10:45:34;;;;;;;1.13;0.30;;;;;;;;;;4994702;28;20456;-86
2023/01/01 10:48:18;;;;;;;3.17;0.40;;;;;;;;;;4977298;28;20433;-86
2023/01/01 10:50:55;;;;;;;3.70;0.20;;;;;;;;;;4994451;28;20409;-85
2023/01/01 10:53:26;;;;;;;1.37;0.20;;;;;;;;;;4994371;28;20943;-85
2023/01/01 10:56:06;;;;;;;0.57;0.40;;;;;;;;;;4994436;28;20409;-85
2023/01/01 10:58:36;;;;;;;2.40;0.20;;;;;;;;;;4994207;28;20411;-85
2023/01/01 11:01:03;;;;;;;2.97;0.60;;;;;;;;;;4976402;28;20487;-83
2023/01/01 11:03:29;;;;;;;3.53;0.20;;;;;;;;;;4994227;28;20493;-84
2023/01/01 11:06:20;;;;;;;2.17;0.43;;;;;;;;;;4994123;28;20481;-84
2023/01/01 11:08:47;;;;;;;0.90;0.20;;;;;;;;;;4994064;28;20519;-85
2023/01/01 11:11:21;;;;;;;3.13;0.37;;;;;;;;;;4993238;28;20414;-85
2023/01/01 11:13:51;;;;;;;1.53;0.20;;;;;;;;;;4994031;28;20546;-86
2023/01/01 11:16:17;;;;;;;0.80;0.20;;;;;;;;;;4993573;28;20415;-86
2023/01/01 11:18:43;;;;;;;2.73;0.20;;;;;;;;;;4993892;28;20826;-85
2023/01/01 11:21:09;;;;;;;1.77;0.20;;;;;;;;;;4994277;28;20855;-85
2023/01/01 11:23:39;;;;;;;0.93;0.20;;;;;;;;;;4993905;28;20489;-86
2023/01/01 11:26:08;;;;;;;6.27;0.30;;;;;;;;;;4976478;28;20847;-87
2023/01/01 11:28:35;;;;;;;2.63;0.20;;;;;;;;;;4993850;28;20407;-88
2023/01/01 11:31:05;;;;;;;1.90;0.20;;;;;;;;;;4993535;28;20910;-86
2023/01/01 11:33:33;;;;;;;2.07;0.20;;;;;;;;;;4993828;28;20940;-87
2023/01/01 11:35:59;;;;;;;1.90;0.20;;;;;;;;;;4993719;28;20446;-87
2023/01/01 11:38:25;;;;;;;1.83;0.20;;;;;;;;;;4993728;28;20414;-86
2023/01/01 11:40:55;;;;;;;1.17;0.20;;;;;;;;;;4993722;28;20563;-87
2023/01/01 11:43:26;;;;;;;4.00;0.70;;;;;;;;;;4993843;28;20482;-87
2023/01/01 11:45:53;;;;;;;2.40;0.20;;;;;;;;;;4975925;28;20478;-83
2023/01/01 11:48:23;;;;;;;0.73;0.20;;;;;;;;;;5000773;28;20437;-85
2023/01/01 11:50:50;;;;;;;1.10;0.20;;;;;;;;;;4995762;28;20915;-86
2023/01/01 11:53:36;;;;;;;0.80;0.40;;;;;;;;;;4976120;28;20418;-88
2023/01/01 11:56:05;;;;;;;1.40;0.20;;;;;;;;;;4993462;28;20811;-87
2023/01/01 11:58:37;;;;;;;1.77;0.20;;;;;;;;;;4975716;28;20422;-86
2023/01/01 12:01:08;;;;;;;1.50;0.20;;;;;;;;;;4978377;28;20442;-83
2023/01/01 12:03:42;;;;;;;2.37;0.20;;;;;;;;;;4975159;28;20937;-88
2023/01/01 12:06:10;;;;;;;2.70;0.20;;;;;;;;;;4974557;28;20478;-88
2023/01/01 12:08:38;;;;;;;0.90;0.20;;;;;;;;;;4976391;28;20467;-88
2023/01/01 12:11:10;;;;;;;0.97;0.20;;;;;;;;;;4974979;28;20428;-89
2023/01/01 12:13:43;;;;;;;2.73;0.50;;;;;;;;;;4975501;28;20442;-89
2023/01/01 12:16:12;;;;;;;1.47;0.20;;;;;;;;;;4974595;28;20403;-85
2023/01/01 12:18:46;;;;;;;1.50;0.20;;;;;;;;;;4956897;28;20506;-86
2023/01/01 12:21:18;;;;;;;1.37;0.20;;;;;;;;;;4974258;28;20422;-90
2023/01/01 12:23:44;;;;;;;2.57;0.40;;;;;;;;;;4977380;28;20407;-89
2023/01/01 12:26:24;;;;;;;2.10;0.40;;;;;;;;;;4978289;28;20568;-86
2023/01/01 12:29:09;;;;;;;1.57;0.20;;;;;;;;;;4960705;28;20526;-90
2023/01/01 12:31:44;;;;;;;1.27;0.20;;;;;;;;;;4960648;28;20442;-91
2023/01/01 12:34:25;;;;;;;1.13;0.20;;;;;;;;;;4960874;28;20945;-92
2023/01/01 12:37:03;;;;;;;2.30;0.30;;;;;;;;;;4977924;28;20487;-90
2023/01/01 12:39:52;;;;;;;3.07;0.20;;;;;;;;;;4977962;28;20503;-89
2023/01/01 12:42:37;;;;;;;2.30;0.47;;;;;;;;;;4977979;28;20418;-88
2023/01/01 12:45:05;;;;;;;1.73;0.20;;;;;;;;;;4960623;28;20422;-89
2023/01/01 12:47:39;;;;;;;1.80;0.10;;;;;;;;;;4960112;28;20431;-91
2023/01/01 12:50:04;;;;;;;3.20;0.30;;;;;;;;;;4960561;28;20488;-91
2023/01/01 12:52:38;;;;;;;1.93;0.30;;;;;;;;;;4977827;28;20423;-89
2023/01/01 12:55:23;;;;;;;2.10;0.20;;;;;;;;;;4960387;28;20532;-88
2023/01/01 12:57:57;;;;;;;1.50;0.23;;;;;;;;;;4977939;28;20404;-85
2023/01/01 13:00:22;;;;;;;2.10;0.20;;;;;;;;;;4977492;28;20439;-89
2023/01/01 13:03:00;;;;;;;3.80;0.20;;;;;;;;;;4977505;28;20461;-89
2023/01/01 13:05:30;;;;;;;3.87;0.30;;;;;;;;;;4977701;28;20465;-90
2023/01/01 13:07:59;;;;;;;1.73;0.20;;;;;;;;;;4977542;28;20545;-89
2023/01/01 13:10:33;;;;;;;1.00;0.20;;;;;;;;;;4977595;28;20442;-88
2023/01/01 13:12:58;;;;;;;2.60;0.30;;;;;;;;;;4977696;28;20770;-88
2023/01/01 13:15:44;;;;;;;1.60;0.40;;;;;;;;;;4959860;28;20429;-89
2023/01/01 13:18:13;;;;;;;3.23;0.40;;;;;;;;;;4989032;28;20520;-86
2023/01/01 13:20:46;;;;;;;6.33;0.30;;;;;;;;;;4978099;28;20934;-89
2023/01/01 13:23:30;;;;;;;3.37;0.20;;;;;;;;;;4959358;28;20421;-87
2023/01/01 13:26:15;;;;;;;2.17;0.30;;;;;;;;;;4959239;28;20475;-87
2023/01/01 13:28:41;;;;;;;6.70;0.33;;;;;;;;;;4976899;28;20463;-88
2023/01/01 13:31:07;;;;;;;0.67;0.20;;;;;;;;;;4958912;28;20802;-85
2023/01/01 13:33:35;;;;;;;0.50;0.20;;;;;;;;;;4976208;28;20854;-89
2023/01/01 13:36:07;;;;;;;1.37;0.30;;;;;;;;;;4976374;28;20196;-88
2023/01/01 13:38:53;;;;;;;2.83;0.30;;;;;;;;;;4958895;28;20436;-84
2023/01/01 13:41:24;;;;;;;2.27;0.20;;;;;;;;;;4963581;28;20431;-83
2023/01/01 13:43:51;;;;;;;2.37;0.40;;;;;;;;;;4979100;28;20859;-86
2023/01/01 13:46:18;;;;;;;5.90;1.07;;;;;;;;;;4978027;28;20799;-83
2023/01/01 13:48:55;;;;;;;2.70;0.40;;;;;;;;;;4960903;28;20425;-91
2023/01/01 13:51:20;;;;;;;1.87;0.23;;;;;;;;;;4961495;28;20447;-87
2023/01/01 13:54:00;;;;;;;1.00;0.20;;;;;;;;;;4977553;28;20518;-88
2023/01/01 13:56:37;;;;;;;4.70;0.40;;;;;;;;;;4977520;28;20664;-83
2023/01/01 13:59:21;;;;;;;5.03;0.57;;;;;;;;;;4976983;28;20438;-89
2023/01/01 14:02:09;;;;;;;3.07;0.30;;;;;;;;;;4976536;28;20415;-83
2023/01/01 14:04:38;;;;;;;1.20;0.20;;;;;;;;;;4977243;28;20424;-88
2023/01/01 14:07:18;;;;;;;6.53;2.10;;;;;;;;;;4976702;28;20474;-85
2023/01/01 14:09:44;;;;;;;2.80;0.30;;;;;;;;;;4958726;28;20476;-85
2023/01/01 14:12:20;;;;;;;2.53;0.20;;;;;;;;;;4975475;28;20423;-85
2023/01/01 14:14:47;;;;;;;1.73;0.30;;;;;;;;;;4958214;28;20457;-84
2023/01/01 14:17:14;;;;;;;5.03;0.23;;;;;;;;;;4975756;28;20794;-84
2023/01/01 14:19:40;;;;;;;4.43;0.20;;;;;;;;;;4958176;28;20437;-85
2023/01/01 14:22:10;;;;;;;2.60;0.40;;;;;;;;;;4975400;28;20441;-84
2023/01/01 14:24:44;;;;;;;4.03;0.50;;;;;;;;;;4957975;28;20467;-85
2023/01/01 14:27:15;;;;;;;4.83;0.50;;;;;;;;;;4957982;28;20508;-86
2023/01/01 14:29:41;;;;;;;3.27;0.30;;;;;;;;;;4958179;28;20422;-84
2023/01/01 14:32:15;;;;;;;5.37;0.47;;;;;;;;;;4957430;28;20783;-87
2023/01/01 14:34:42;;;;;;;4.83;0.30;;;;;;;;;;4975298;28;20417;-86
2023/01/01 14:37:21;;;;;;;2.47;0.20;;;;;;;;;;4957897;28;20429;-84
2023/01/01 14:40:04;;;;;;;2.33;0.40;;;;;;;;;;4975106;28;20413;-86
2023/01/01 14:42:29;;;;;;;1.13;0.20;;;;;;;;;;4975178;28;20415;-86
2023/01/01 14:44:55;;;;;;;2.10;0.30;;;;;;;;;;4958719;28;20430;-85
2023/01/01 14:47:32;;;;;;;3.83;0.60;;;;;;;;;;4963447;28;20437;-82
2023/01/01 14:50:12;;;;;;;3.93;0.30;;;;;;;;;;4975122;28;20780;-83
2023/01/01 14:52:38;;;;;;;3.70;0.83;;;;;;;;;;4975200;28;20429;-87
2023/01/01 14:55:08;;;;;;;3.53;0.30;;;;;;;;;;4978928;28;20434;-83
2023/01/01 14:57:35;;;;;;;5.70;0.43;;;;;;;;;;4980126;28;20458;-87
2023/01/01 15:00:03;;;;;;;1.63;0.20;;;;;;;;;;4957002;28;20493;-84
2023/01/01 15:02:31;;;;;;;3.23;0.43;;;;;;;;;;4954007;29;20937;-83
2023/01/01 15:04:58;;;;;;;3.77;0.40;;;;;;;;;;4955188;29;20418;-87
2023/01/01 15:07:29;;;;;;;3.33;0.70;;;;;;;;;;4954045;29;20429;-87